Terminal Aerodrome Forecast
Issued by NWS

Home | Current Version | Previous Version | Text Only | Print | Product List | Glossary On
Versions: 1 2 3 4 5 6 7 8 9 10 11 12 13
517
FTUS45 KTFX 060534
TAFGTF
TAF
KGTF 060534Z 0606/0706 22022G35KT P6SM BKN150
     FM061800 25035G48KT P6SM SCT180
     FM070000 27020G30KT P6SM SCT180=

USA.gov is the U.S. government's official web portal to all federal, state and local government web resources and services.